createdAt,value
2018-10-07T00:02:27.199Z,10.20
2018-10-07T00:04:55.544Z,10.00
2018-10-07T00:07:23.961Z,9.80
2018-10-07T00:09:52.473Z,9.70
2018-10-07T00:12:20.862Z,9.60
2018-10-07T00:14:49.226Z,9.60
2018-10-07T00:17:17.603Z,9.60
2018-10-07T00:19:45.979Z,9.70
2018-10-07T00:22:14.414Z,9.90
2018-10-07T00:24:42.752Z,10.00
2018-10-07T00:27:11.094Z,10.10
2018-10-07T00:29:39.448Z,10.00
2018-10-07T00:32:14.221Z,10.00
2018-10-07T00:34:43.286Z,9.90
2018-10-07T00:37:11.653Z,9.80
2018-10-07T00:39:40.032Z,9.70
2018-10-07T00:42:08.362Z,9.60
2018-10-07T00:44:36.733Z,9.60
2018-10-07T00:47:05.103Z,9.60
2018-10-07T00:49:33.506Z,9.60
2018-10-07T00:52:01.876Z,9.60
2018-10-07T00:54:30.249Z,9.50
2018-10-07T00:56:58.584Z,9.60
2018-10-07T00:59:26.919Z,9.50
2018-10-07T01:01:55.270Z,9.50
2018-10-07T01:04:23.610Z,9.50
2018-10-07T01:06:51.899Z,9.60
2018-10-07T01:09:20.336Z,9.60
2018-10-07T01:11:48.710Z,9.50
2018-10-07T01:14:17.067Z,9.50
2018-10-07T01:16:45.610Z,9.50
2018-10-07T01:19:13.986Z,9.50
2018-10-07T01:21:42.354Z,9.50
2018-10-07T01:24:10.743Z,9.50
2018-10-07T01:26:39.071Z,9.50
2018-10-07T01:29:07.486Z,9.50
2018-10-07T01:31:35.837Z,9.50
2018-10-07T01:34:04.207Z,9.40
2018-10-07T01:36:32.523Z,9.40
2018-10-07T01:39:00.861Z,9.40
2018-10-07T01:41:29.213Z,9.30
2018-10-07T01:43:57.589Z,9.30
2018-10-07T01:46:25.988Z,9.20
2018-10-07T01:48:54.362Z,9.20
2018-10-07T01:51:22.787Z,9.20
2018-10-07T01:53:51.154Z,9.20
2018-10-07T01:56:19.591Z,9.30
2018-10-07T01:58:47.992Z,9.30
2018-10-07T02:01:16.437Z,9.20
2018-10-07T02:03:44.806Z,9.10
2018-10-07T02:06:13.189Z,8.90
2018-10-07T02:08:41.509Z,8.80
2018-10-07T02:11:09.905Z,8.80
2018-10-07T02:13:38.236Z,8.90
2018-10-07T02:16:06.608Z,9.00
2018-10-07T02:18:35.016Z,9.10
2018-10-07T02:21:03.421Z,9.20
2018-10-07T02:23:31.743Z,9.30
2018-10-07T02:26:00.095Z,9.40
2018-10-07T02:28:28.474Z,9.50
2018-10-07T02:30:56.871Z,9.50
2018-10-07T02:33:25.226Z,9.30
2018-10-07T02:35:53.585Z,9.20
2018-10-07T02:38:21.865Z,9.10
2018-10-07T02:40:50.219Z,9.00
2018-10-07T02:43:18.606Z,8.90
2018-10-07T02:45:47.012Z,8.90
2018-10-07T02:48:15.355Z,8.80
2018-10-07T02:50:43.870Z,8.60
2018-10-07T02:53:12.303Z,8.60
2018-10-07T02:55:40.575Z,8.60
2018-10-07T02:58:09.614Z,8.60
2018-10-07T03:00:38.004Z,8.60
2018-10-07T03:03:06.355Z,8.70
2018-10-07T03:05:34.792Z,8.80
2018-10-07T03:08:03.124Z,8.80
2018-10-07T03:10:31.499Z,8.90
2018-10-07T03:12:59.860Z,9.10
2018-10-07T03:15:28.212Z,9.40
2018-10-07T03:17:56.549Z,9.60
2018-10-07T03:20:24.915Z,9.90
2018-10-07T03:22:53.284Z,10.20
2018-10-07T03:25:21.657Z,10.40
2018-10-07T03:27:50.038Z,10.70
2018-10-07T03:30:18.370Z,10.70
2018-10-07T03:32:46.746Z,10.60
2018-10-07T03:35:15.189Z,10.50
2018-10-07T03:37:43.561Z,10.20
2018-10-07T03:40:11.905Z,10.40
2018-10-07T03:42:40.253Z,10.40
2018-10-07T03:45:08.601Z,10.70
2018-10-07T03:47:36.927Z,10.80
2018-10-07T03:50:05.585Z,10.90
2018-10-07T03:52:33.958Z,11.00
2018-10-07T03:55:02.306Z,11.00
2018-10-07T03:57:30.645Z,11.00
2018-10-07T03:59:59.486Z,10.80
2018-10-07T04:02:27.821Z,10.60
2018-10-07T04:04:56.235Z,10.40
2018-10-07T04:07:24.602Z,10.20
2018-10-07T04:09:53.066Z,10.00
2018-10-07T04:12:21.448Z,9.80
2018-10-07T04:14:49.770Z,9.60
2018-10-07T04:17:18.169Z,9.50
2018-10-07T04:19:46.511Z,9.60
2018-10-07T04:22:14.833Z,9.70
2018-10-07T04:24:43.214Z,9.80
2018-10-07T04:27:11.539Z,9.80
2018-10-07T04:29:39.874Z,9.60
2018-10-07T04:32:08.219Z,9.50
2018-10-07T04:34:36.562Z,9.50
2018-10-07T04:37:04.953Z,9.60
2018-10-07T04:39:33.351Z,9.60
2018-10-07T04:42:01.664Z,9.60
2018-10-07T04:44:30.037Z,9.60
2018-10-07T04:46:58.443Z,9.60
2018-10-07T04:49:26.821Z,9.50
2018-10-07T04:51:55.202Z,9.50
2018-10-07T04:54:23.550Z,9.40
2018-10-07T04:56:51.923Z,9.40
2018-10-07T04:59:20.307Z,9.30
2018-10-07T05:01:48.734Z,9.20
2018-10-07T05:04:17.121Z,9.20
2018-10-07T05:06:45.545Z,9.10
2018-10-07T05:09:13.940Z,9.10
2018-10-07T05:11:42.378Z,9.10
2018-10-07T05:14:11.577Z,9.00
2018-10-07T05:16:48.184Z,9.00
2018-10-07T05:19:16.817Z,8.90
2018-10-07T05:21:45.286Z,9.10
2018-10-07T05:24:13.625Z,9.20
2018-10-07T05:26:41.989Z,9.30
2018-10-07T05:29:10.333Z,9.20
2018-10-07T05:31:38.630Z,9.20
2018-10-07T05:34:07.222Z,9.20
2018-10-07T05:36:35.530Z,9.10
2018-10-07T05:39:05.075Z,9.20
2018-10-07T05:41:33.496Z,9.40
2018-10-07T05:44:01.921Z,9.50
2018-10-07T05:46:30.281Z,9.50
2018-10-07T05:48:58.607Z,9.60
2018-10-07T05:51:27.016Z,9.60
2018-10-07T05:53:55.389Z,8.80
2018-10-07T05:56:23.820Z,8.50
2018-10-07T05:58:54.197Z,8.40
2018-10-07T06:01:31.541Z,8.40
2018-10-07T06:04:07.824Z,8.50
2018-10-07T06:06:36.540Z,8.80
2018-10-07T06:09:07.035Z,9.30
2018-10-07T06:11:35.409Z,9.70
2018-10-07T06:14:03.808Z,10.10
2018-10-07T06:16:32.293Z,10.30
2018-10-07T06:19:00.657Z,10.50
2018-10-07T06:21:29.008Z,10.80
2018-10-07T06:23:57.379Z,10.90
2018-10-07T06:26:25.697Z,11.10
2018-10-07T06:28:54.044Z,11.20
2018-10-07T06:31:22.492Z,11.20
2018-10-07T06:33:50.868Z,11.30
2018-10-07T06:36:19.245Z,11.40
2018-10-07T06:38:47.696Z,11.40
2018-10-07T06:41:16.051Z,11.50
2018-10-07T06:43:44.445Z,11.70
2018-10-07T06:46:12.834Z,11.60
2018-10-07T06:48:41.198Z,11.70
2018-10-07T06:51:09.656Z,11.80
2018-10-07T06:53:38.012Z,11.90
2018-10-07T06:56:06.459Z,11.90
2018-10-07T06:58:34.851Z,12.00
2018-10-07T07:01:03.302Z,12.00
2018-10-07T07:03:31.678Z,12.10
2018-10-07T07:06:00.111Z,12.20
2018-10-07T07:08:28.507Z,12.20
2018-10-07T07:10:56.885Z,12.20
2018-10-07T07:13:25.252Z,12.30
2018-10-07T07:15:53.670Z,12.50
2018-10-07T07:18:22.090Z,12.50
2018-10-07T07:20:50.457Z,12.50
2018-10-07T07:23:18.779Z,12.60
2018-10-07T07:25:47.155Z,12.60
2018-10-07T07:28:15.631Z,12.60
2018-10-07T07:30:43.959Z,12.70
2018-10-07T07:33:12.345Z,12.80
2018-10-07T07:35:40.709Z,13.00
2018-10-07T07:38:09.071Z,13.20
2018-10-07T07:40:37.421Z,13.40
2018-10-07T07:43:05.936Z,13.70
2018-10-07T07:45:34.563Z,14.10
2018-10-07T07:48:03.278Z,14.50
2018-10-07T07:50:31.757Z,14.70
2018-10-07T07:53:00.144Z,14.90
2018-10-07T07:55:28.529Z,14.80
2018-10-07T07:57:57.005Z,14.90
2018-10-07T08:00:25.365Z,15.10
2018-10-07T08:02:53.953Z,15.30
2018-10-07T08:05:22.369Z,15.50
2018-10-07T08:07:50.889Z,15.60
2018-10-07T08:10:19.333Z,15.80
2018-10-07T08:12:47.764Z,15.90
2018-10-07T08:15:16.179Z,16.00
2018-10-07T08:17:44.649Z,16.30
2018-10-07T08:20:13.092Z,16.30
2018-10-07T08:22:41.527Z,16.40
2018-10-07T08:25:09.957Z,16.10
2018-10-07T08:27:38.539Z,16.20
2018-10-07T08:30:06.939Z,16.10
2018-10-07T08:32:35.407Z,16.10
2018-10-07T08:35:03.841Z,16.10
2018-10-07T08:37:32.233Z,16.10
2018-10-07T08:40:00.742Z,15.80
2018-10-07T08:42:29.237Z,15.80
2018-10-07T08:44:57.716Z,15.90
2018-10-07T08:47:26.160Z,15.70
2018-10-07T08:49:54.667Z,15.40
2018-10-07T08:52:23.150Z,15.20
2018-10-07T08:54:51.660Z,15.00
2018-10-07T08:57:20.038Z,15.10
2018-10-07T08:59:49.668Z,15.10
2018-10-07T09:02:18.074Z,14.90
2018-10-07T09:04:46.428Z,14.60
2018-10-07T09:07:14.920Z,14.60
2018-10-07T09:09:43.319Z,14.70
2018-10-07T09:12:11.747Z,14.60
2018-10-07T09:14:40.211Z,14.60
2018-10-07T09:17:08.647Z,14.50
2018-10-07T09:19:37.068Z,14.40
2018-10-07T09:22:05.530Z,14.60
2018-10-07T09:24:33.979Z,14.80
2018-10-07T09:27:02.471Z,14.80
2018-10-07T09:29:30.790Z,14.70
2018-10-07T09:31:59.249Z,14.80
2018-10-07T09:34:27.636Z,14.70
2018-10-07T09:36:56.048Z,14.70
2018-10-07T09:39:24.614Z,14.80
2018-10-07T09:41:52.961Z,14.70
2018-10-07T09:44:21.370Z,14.70
2018-10-07T09:46:49.922Z,14.70
2018-10-07T09:49:18.398Z,14.70
2018-10-07T09:51:46.810Z,14.60
2018-10-07T09:54:15.276Z,14.50
2018-10-07T09:56:43.713Z,14.50
2018-10-07T09:59:12.212Z,14.40
2018-10-07T10:01:40.624Z,14.20
2018-10-07T10:04:09.039Z,14.20
2018-10-07T10:06:37.508Z,14.20
2018-10-07T10:09:07.824Z,14.20
2018-10-07T10:11:36.253Z,14.30
2018-10-07T10:14:04.846Z,14.30
2018-10-07T10:17:06.839Z,14.30
2018-10-07T10:19:45.826Z,14.20
2018-10-07T10:22:20.619Z,14.10
2018-10-07T10:26:58.534Z,14.10
2018-10-07T10:29:29.830Z,14.20
2018-10-07T10:32:33.809Z,14.10
2018-10-07T10:35:23.764Z,14.30
2018-10-07T10:38:16.017Z,14.00
2018-10-07T10:41:02.374Z,13.90
2018-10-07T10:43:39.701Z,13.70
2018-10-07T10:46:18.465Z,13.80
2018-10-07T10:48:56.164Z,13.80
2018-10-07T10:51:34.258Z,13.90
2018-10-07T10:54:13.628Z,13.90
2018-10-07T10:56:46.497Z,13.90
2018-10-07T10:59:27.063Z,13.80
2018-10-07T11:02:01.731Z,13.90
2018-10-07T11:04:37.230Z,13.90
2018-10-07T11:07:19.645Z,13.80
2018-10-07T11:09:59.414Z,13.90
2018-10-07T11:12:38.284Z,13.90
2018-10-07T11:15:17.886Z,13.80
2018-10-07T11:18:19.746Z,13.90
2018-10-07T11:23:01.027Z,14.10
2018-10-07T11:26:16.513Z,14.10
2018-10-07T11:28:54.251Z,14.00
2018-10-07T11:31:33.958Z,14.00
2018-10-07T11:34:13.724Z,13.90
2018-10-07T11:36:50.488Z,13.90
2018-10-07T11:39:30.201Z,14.00
2018-10-07T11:42:05.291Z,14.10
2018-10-07T11:45:11.108Z,14.10
2018-10-07T11:48:02.135Z,14.10
2018-10-07T11:52:49.865Z,14.10
2018-10-07T11:55:18.204Z,14.10
2018-10-07T11:57:46.645Z,14.00
2018-10-07T12:00:15.022Z,14.10
2018-10-07T12:02:43.519Z,14.30
2018-10-07T12:05:11.916Z,14.30
2018-10-07T12:07:40.321Z,14.40
2018-10-07T12:10:08.726Z,14.40
2018-10-07T12:12:37.125Z,14.50
2018-10-07T12:15:05.476Z,14.40
2018-10-07T12:17:33.844Z,14.40
2018-10-07T12:20:02.313Z,14.20
2018-10-07T12:22:30.750Z,14.20
2018-10-07T12:24:59.159Z,14.10
2018-10-07T12:27:27.619Z,14.10
2018-10-07T12:29:55.973Z,14.30
2018-10-07T12:32:24.365Z,14.30
2018-10-07T12:34:52.832Z,14.40
2018-10-07T12:37:21.285Z,14.30
2018-10-07T12:39:49.778Z,14.40
2018-10-07T12:42:18.247Z,14.40
2018-10-07T12:44:46.684Z,14.40
2018-10-07T12:47:15.109Z,14.50
2018-10-07T12:49:43.550Z,14.60
2018-10-07T12:52:12.070Z,14.70
2018-10-07T12:54:40.482Z,14.80
2018-10-07T12:57:08.941Z,14.70
2018-10-07T12:59:37.377Z,14.60
2018-10-07T13:02:05.791Z,14.80
2018-10-07T13:04:34.209Z,14.60
2018-10-07T13:07:02.647Z,14.30
2018-10-07T13:09:31.117Z,14.30
2018-10-07T13:11:59.458Z,14.30
2018-10-07T13:14:27.881Z,14.30
2018-10-07T13:16:56.313Z,14.30
2018-10-07T13:19:24.762Z,14.30
2018-10-07T13:21:53.104Z,14.20
2018-10-07T13:24:21.523Z,14.30
2018-10-07T13:26:49.985Z,14.20
2018-10-07T13:29:18.423Z,14.20
2018-10-07T13:31:46.847Z,14.00
2018-10-07T13:34:15.266Z,14.00
2018-10-07T13:36:43.636Z,13.80
2018-10-07T13:39:12.694Z,13.80
2018-10-07T13:41:42.117Z,13.70
2018-10-07T13:44:10.728Z,13.70
2018-10-07T13:46:39.207Z,13.60
2018-10-07T13:49:07.764Z,13.50
2018-10-07T13:51:36.501Z,13.40
2018-10-07T13:54:04.877Z,13.50
2018-10-07T13:56:33.331Z,13.50
2018-10-07T13:59:01.838Z,13.30
2018-10-07T14:01:30.290Z,13.10
2018-10-07T14:03:58.769Z,13.20
2018-10-07T14:06:27.157Z,13.40
2018-10-07T14:08:55.571Z,13.30
2018-10-07T14:11:23.994Z,13.30
2018-10-07T14:13:52.400Z,13.30
2018-10-07T14:16:20.919Z,13.00
2018-10-07T14:18:49.306Z,13.00
2018-10-07T14:21:17.682Z,12.90
2018-10-07T14:23:46.157Z,12.90
2018-10-07T14:26:14.570Z,12.90
2018-10-07T14:28:43.009Z,12.80
2018-10-07T14:31:11.434Z,12.80
2018-10-07T14:33:39.978Z,12.60
2018-10-07T14:36:08.643Z,12.60
2018-10-07T14:38:37.277Z,12.50
2018-10-07T14:41:05.909Z,12.50
2018-10-07T14:43:34.358Z,12.50
2018-10-07T14:46:02.761Z,12.50
2018-10-07T14:48:31.189Z,12.60
2018-10-07T14:50:59.657Z,12.60
2018-10-07T14:53:28.009Z,12.70
2018-10-07T14:55:56.446Z,12.60
2018-10-07T14:58:24.893Z,12.70
2018-10-07T15:00:53.295Z,12.70
2018-10-07T15:03:21.692Z,12.70
2018-10-07T15:05:50.247Z,12.60
2018-10-07T15:08:18.637Z,12.70
2018-10-07T15:10:47.058Z,12.80
2018-10-07T15:13:16.077Z,12.70
2018-10-07T15:15:44.599Z,12.70
2018-10-07T15:18:13.039Z,12.80
2018-10-07T15:20:41.493Z,12.80
2018-10-07T15:23:09.882Z,12.80
2018-10-07T15:25:38.508Z,12.90
2018-10-07T15:28:07.189Z,12.80
2018-10-07T15:30:35.875Z,12.90
2018-10-07T15:33:04.359Z,12.90
2018-10-07T15:35:32.810Z,13.00
2018-10-07T15:38:01.241Z,13.00
2018-10-07T15:40:29.642Z,12.90
2018-10-07T15:42:58.069Z,12.90
2018-10-07T15:45:26.459Z,12.90
2018-10-07T15:47:54.878Z,12.80
2018-10-07T15:50:23.475Z,11.70
2018-10-07T15:52:51.918Z,12.80
2018-10-07T15:55:20.334Z,12.80
2018-10-07T15:57:48.704Z,12.70
2018-10-07T16:00:17.135Z,12.70
2018-10-07T16:02:45.675Z,12.70
2018-10-07T16:05:14.084Z,12.60
2018-10-07T16:07:42.450Z,12.60
2018-10-07T16:10:10.897Z,12.60
2018-10-07T16:12:39.371Z,12.60
2018-10-07T16:15:07.786Z,12.50
2018-10-07T16:17:36.209Z,12.40
2018-10-07T16:20:04.647Z,12.40
2018-10-07T16:22:33.050Z,12.40
2018-10-07T16:25:02.438Z,12.30
2018-10-07T16:27:30.868Z,12.40
2018-10-07T16:29:59.325Z,12.30
2018-10-07T16:32:27.729Z,12.30
2018-10-07T16:34:56.209Z,12.40
2018-10-07T16:37:24.669Z,12.30
2018-10-07T16:39:53.032Z,12.40
2018-10-07T16:42:21.435Z,12.20
2018-10-07T16:44:49.883Z,12.20
2018-10-07T16:47:18.273Z,12.10
2018-10-07T16:49:46.731Z,12.10
2018-10-07T16:52:15.223Z,12.10
2018-10-07T16:54:43.616Z,12.10
2018-10-07T16:57:12.060Z,12.10
2018-10-07T16:59:40.498Z,12.00
2018-10-07T17:02:08.922Z,12.00
2018-10-07T17:04:37.410Z,12.00
2018-10-07T17:07:05.755Z,12.00
2018-10-07T17:09:34.132Z,12.00
2018-10-07T17:12:02.503Z,12.10
2018-10-07T17:14:30.962Z,12.00
2018-10-07T17:16:59.371Z,12.00
2018-10-07T17:19:27.785Z,11.90
2018-10-07T17:21:56.149Z,11.90
2018-10-07T17:24:24.536Z,11.90
2018-10-07T17:26:53.027Z,11.90
2018-10-07T17:29:21.430Z,11.90
2018-10-07T17:31:49.851Z,11.80
2018-10-07T17:34:18.337Z,12.00
2018-10-07T17:36:46.732Z,12.00
2018-10-07T17:39:15.205Z,11.90
2018-10-07T17:41:43.659Z,11.90
2018-10-07T17:44:12.087Z,11.80
2018-10-07T17:46:40.549Z,11.70
2018-10-07T17:49:09.070Z,11.70
2018-10-07T17:51:37.462Z,11.70
2018-10-07T17:54:05.951Z,11.80
2018-10-07T17:56:34.398Z,11.70
2018-10-07T17:59:02.803Z,11.80
2018-10-07T18:01:31.362Z,11.70
2018-10-07T18:03:59.743Z,11.70
2018-10-07T18:06:28.131Z,11.70
2018-10-07T18:08:56.476Z,11.70
2018-10-07T18:11:24.939Z,11.80
2018-10-07T18:13:53.294Z,11.80
2018-10-07T18:16:21.683Z,11.90
2018-10-07T18:18:50.075Z,11.90
2018-10-07T18:21:18.524Z,11.90
2018-10-07T18:23:46.986Z,11.90
2018-10-07T18:26:15.404Z,11.90
2018-10-07T18:28:43.884Z,11.90
2018-10-07T18:31:12.343Z,11.90
2018-10-07T18:33:40.752Z,11.90
2018-10-07T18:36:09.123Z,11.90
2018-10-07T18:38:37.642Z,11.90
2018-10-07T18:41:06.100Z,11.90
2018-10-07T18:43:34.677Z,11.90
2018-10-07T18:46:03.089Z,11.90
2018-10-07T18:48:31.539Z,11.80
2018-10-07T18:50:59.920Z,11.80
2018-10-07T18:53:28.280Z,11.90
2018-10-07T18:55:56.686Z,11.90
2018-10-07T18:58:25.034Z,11.90
2018-10-07T19:00:53.448Z,11.80
2018-10-07T19:03:21.854Z,11.60
2018-10-07T19:05:50.315Z,11.50
2018-10-07T19:08:18.764Z,11.40
2018-10-07T19:10:47.115Z,11.30
2018-10-07T19:13:15.514Z,11.20
2018-10-07T19:15:43.881Z,11.10
2018-10-07T19:18:12.329Z,11.10
2018-10-07T19:20:40.999Z,11.00
2018-10-07T19:23:09.424Z,10.90
2018-10-07T19:25:37.845Z,10.90
2018-10-07T19:28:06.596Z,10.90
2018-10-07T19:30:35.171Z,10.80
2018-10-07T19:33:03.580Z,10.70
2018-10-07T19:35:32.017Z,10.70
2018-10-07T19:38:00.474Z,10.50
2018-10-07T19:40:28.917Z,10.60
2018-10-07T19:42:57.292Z,10.50
2018-10-07T19:45:25.752Z,10.50
2018-10-07T19:47:54.135Z,10.40
2018-10-07T19:50:22.595Z,10.30
2018-10-07T19:52:51.127Z,10.30
2018-10-07T19:55:19.485Z,10.20
2018-10-07T19:57:47.931Z,10.20
2018-10-07T20:00:16.315Z,10.10
2018-10-07T20:02:44.723Z,10.00
2018-10-07T20:05:13.238Z,10.10
2018-10-07T20:07:41.678Z,10.00
2018-10-07T20:10:10.109Z,10.00
2018-10-07T20:12:38.549Z,9.90
2018-10-07T20:15:07.214Z,9.90
2018-10-07T20:17:35.626Z,9.90
2018-10-07T20:20:04.054Z,9.90
2018-10-07T20:22:32.437Z,9.80
2018-10-07T20:25:00.846Z,9.70
2018-10-07T20:27:29.229Z,9.70
2018-10-07T20:29:57.692Z,9.70
2018-10-07T20:32:26.322Z,9.60
2018-10-07T20:34:54.739Z,9.60
2018-10-07T20:37:23.164Z,9.60
2018-10-07T20:39:51.759Z,9.60
2018-10-07T20:42:20.123Z,9.50
2018-10-07T20:44:48.611Z,9.50
2018-10-07T20:47:17.126Z,9.50
2018-10-07T20:49:45.558Z,9.50
2018-10-07T20:52:14.000Z,9.40
2018-10-07T20:54:42.374Z,9.30
2018-10-07T20:57:11.268Z,9.20
2018-10-07T20:59:39.703Z,9.20
2018-10-07T21:02:08.214Z,9.20
2018-10-07T21:04:36.692Z,9.20
2018-10-07T21:07:05.037Z,9.10
2018-10-07T21:09:33.392Z,9.10
2018-10-07T21:12:01.807Z,9.00
2018-10-07T21:14:30.200Z,9.00
2018-10-07T21:16:58.567Z,9.00
2018-10-07T21:19:26.917Z,8.90
2018-10-07T21:21:55.319Z,9.00
2018-10-07T21:24:23.712Z,8.90
2018-10-07T21:26:52.054Z,8.90
2018-10-07T21:29:20.449Z,8.90
2018-10-07T21:31:48.778Z,8.90
2018-10-07T21:34:17.135Z,9.00
2018-10-07T21:36:45.544Z,8.80
2018-10-07T21:39:14.009Z,8.90
2018-10-07T21:41:42.464Z,8.90
2018-10-07T21:44:10.776Z,8.80
2018-10-07T21:46:39.228Z,8.80
2018-10-07T21:49:08.118Z,8.70
2018-10-07T21:51:36.501Z,8.70
2018-10-07T21:54:04.878Z,8.70
2018-10-07T21:56:33.223Z,8.70
2018-10-07T21:59:01.539Z,8.70
2018-10-07T22:01:30.365Z,8.70
2018-10-07T22:03:58.745Z,8.60
2018-10-07T22:06:27.170Z,8.70
2018-10-07T22:08:55.650Z,8.70
2018-10-07T22:11:23.994Z,8.60
2018-10-07T22:13:52.495Z,8.60
2018-10-07T22:16:20.949Z,8.70
2018-10-07T22:18:49.332Z,8.60
2018-10-07T22:21:17.712Z,8.50
2018-10-07T22:23:46.185Z,8.50
2018-10-07T22:26:14.629Z,8.40
2018-10-07T22:28:42.976Z,8.30
2018-10-07T22:31:11.463Z,8.20
2018-10-07T22:33:39.812Z,8.10
2018-10-07T22:36:08.195Z,8.10
2018-10-07T22:38:36.536Z,8.20
2018-10-07T22:41:04.955Z,8.10
2018-10-07T22:43:33.364Z,8.20
2018-10-07T22:46:01.762Z,8.10
2018-10-07T22:48:30.124Z,8.10
2018-10-07T22:50:58.490Z,8.00
2018-10-07T22:53:26.855Z,8.00
2018-10-07T22:55:55.241Z,8.00
2018-10-07T22:58:23.614Z,7.90
2018-10-07T23:00:52.032Z,7.90
2018-10-07T23:03:20.421Z,7.80
2018-10-07T23:05:48.766Z,7.70
2018-10-07T23:08:17.187Z,7.70
2018-10-07T23:10:45.539Z,7.70
2018-10-07T23:13:13.841Z,7.60
2018-10-07T23:15:42.236Z,7.80
2018-10-07T23:18:10.589Z,7.60
2018-10-07T23:20:38.923Z,7.60
2018-10-07T23:23:07.374Z,7.50
2018-10-07T23:25:35.721Z,7.50
2018-10-07T23:28:04.172Z,7.50
2018-10-07T23:30:32.530Z,7.50
2018-10-07T23:33:00.906Z,7.40
2018-10-07T23:35:29.292Z,7.30
2018-10-07T23:37:57.705Z,7.20
2018-10-07T23:40:26.135Z,7.20
2018-10-07T23:42:54.496Z,7.10
2018-10-07T23:45:22.857Z,7.10
2018-10-07T23:47:51.195Z,7.10
2018-10-07T23:50:19.572Z,7.00
2018-10-07T23:52:48.017Z,7.00
2018-10-07T23:55:16.418Z,7.00
2018-10-07T23:57:44.862Z,6.90
